sensor_id;sensor_type;location;lat;lon;timestamp;P1;durP1;ratioP1;P2;durP2;ratioP2
4738;SDS011;2383;48.632;10.156;2023-01-04T00:02:22;17.37;;;11.57;;
4738;SDS011;2383;48.632;10.156;2023-01-04T00:06:24;21.53;;;12.17;;
4738;SDS011;2383;48.632;10.156;2023-01-04T00:10:27;20.67;;;10.60;;
4738;SDS011;2383;48.632;10.156;2023-01-04T00:14:28;15.60;;;11.10;;
4738;SDS011;2383;48.632;10.156;2023-01-04T00:18:31;21.53;;;11.37;;
4738;SDS011;2383;48.632;10.156;2023-01-04T00:22:33;20.70;;;11.20;;
4738;SDS011;2383;48.632;10.156;2023-01-04T00:26:35;24.40;;;11.57;;
4738;SDS011;2383;48.632;10.156;2023-01-04T00:30:37;20.20;;;11.70;;
4738;SDS011;2383;48.632;10.156;2023-01-04T00:34:39;21.50;;;12.97;;
4738;SDS011;2383;48.632;10.156;2023-01-04T00:38:41;20.00;;;13.47;;
4738;SDS011;2383;48.632;10.156;2023-01-04T00:42:43;24.13;;;15.77;;
4738;SDS011;2383;48.632;10.156;2023-01-04T00:46:45;22.00;;;14.67;;
4738;SDS011;2383;48.632;10.156;2023-01-04T00:50:47;20.63;;;15.10;;
4738;SDS011;2383;48.632;10.156;2023-01-04T00:54:50;20.77;;;13.43;;
4738;SDS011;2383;48.632;10.156;2023-01-04T00:58:52;18.63;;;12.63;;
4738;SDS011;2383;48.632;10.156;2023-01-04T01:02:56;19.50;;;13.40;;
4738;SDS011;2383;48.632;10.156;2023-01-04T01:06:58;19.67;;;13.13;;
4738;SDS011;2383;48.632;10.156;2023-01-04T01:11:07;18.57;;;12.67;;
4738;SDS011;2383;48.632;10.156;2023-01-04T01:15:10;20.13;;;13.40;;
4738;SDS011;2383;48.632;10.156;2023-01-04T01:19:12;16.47;;;11.63;;
4738;SDS011;2383;48.632;10.156;2023-01-04T01:23:15;17.50;;;11.97;;
4738;SDS011;2383;48.632;10.156;2023-01-04T01:27:17;13.90;;;9.70;;
4738;SDS011;2383;48.632;10.156;2023-01-04T01:31:23;12.93;;;9.40;;
4738;SDS011;2383;48.632;10.156;2023-01-04T01:35:27;11.60;;;8.67;;
4738;SDS011;2383;48.632;10.156;2023-01-04T01:39:29;13.63;;;9.00;;
4738;SDS011;2383;48.632;10.156;2023-01-04T01:48:27;10.23;;;7.67;;
4738;SDS011;2383;48.632;10.156;2023-01-04T01:52:30;10.50;;;7.67;;
4738;SDS011;2383;48.632;10.156;2023-01-04T01:56:38;11.40;;;7.60;;
4738;SDS011;2383;48.632;10.156;2023-01-04T02:00:43;10.57;;;7.40;;
4738;SDS011;2383;48.632;10.156;2023-01-04T02:04:46;12.57;;;8.20;;
4738;SDS011;2383;48.632;10.156;2023-01-04T02:08:50;10.53;;;7.57;;
4738;SDS011;2383;48.632;10.156;2023-01-04T02:12:53;10.63;;;7.57;;
4738;SDS011;2383;48.632;10.156;2023-01-04T02:38:23;13.33;;;8.67;;
4738;SDS011;2383;48.632;10.156;2023-01-04T02:42:57;14.97;;;9.23;;
4738;SDS011;2383;48.632;10.156;2023-01-04T02:47:34;13.97;;;9.03;;
4738;SDS011;2383;48.632;10.156;2023-01-04T02:51:55;12.47;;;8.63;;
4738;SDS011;2383;48.632;10.156;2023-01-04T03:00:29;13.60;;;9.00;;
4738;SDS011;2383;48.632;10.156;2023-01-04T03:10:05;12.63;;;8.40;;
4738;SDS011;2383;48.632;10.156;2023-01-04T03:14:19;13.83;;;8.77;;
4738;SDS011;2383;48.632;10.156;2023-01-04T03:18:37;12.40;;;8.00;;
4738;SDS011;2383;48.632;10.156;2023-01-04T03:22:44;13.00;;;8.80;;
4738;SDS011;2383;48.632;10.156;2023-01-04T03:27:12;14.40;;;7.97;;
4738;SDS011;2383;48.632;10.156;2023-01-04T03:31:33;10.63;;;8.00;;
4738;SDS011;2383;48.632;10.156;2023-01-04T03:36:10;11.10;;;7.77;;
4738;SDS011;2383;48.632;10.156;2023-01-04T03:40:24;10.87;;;7.87;;
4738;SDS011;2383;48.632;10.156;2023-01-04T03:53:37;9.60;;;7.10;;
4738;SDS011;2383;48.632;10.156;2023-01-04T03:57:45;10.17;;;7.40;;
4738;SDS011;2383;48.632;10.156;2023-01-04T04:01:48;9.70;;;7.17;;
4738;SDS011;2383;48.632;10.156;2023-01-04T04:05:50;10.30;;;7.07;;
4738;SDS011;2383;48.632;10.156;2023-01-04T04:10:11;9.90;;;7.60;;
4738;SDS011;2383;48.632;10.156;2023-01-04T04:14:12;10.43;;;6.60;;
4738;SDS011;2383;48.632;10.156;2023-01-04T04:18:14;11.63;;;6.90;;
4738;SDS011;2383;48.632;10.156;2023-01-04T04:22:16;9.53;;;6.80;;
4738;SDS011;2383;48.632;10.156;2023-01-04T04:26:18;10.30;;;7.23;;
4738;SDS011;2383;48.632;10.156;2023-01-04T04:30:20;11.77;;;7.47;;
4738;SDS011;2383;48.632;10.156;2023-01-04T04:34:21;10.87;;;7.70;;
4738;SDS011;2383;48.632;10.156;2023-01-04T04:38:23;11.53;;;7.73;;
4738;SDS011;2383;48.632;10.156;2023-01-04T04:42:25;11.60;;;7.53;;
4738;SDS011;2383;48.632;10.156;2023-01-04T04:46:27;11.20;;;8.07;;
4738;SDS011;2383;48.632;10.156;2023-01-04T04:50:29;12.70;;;8.30;;
4738;SDS011;2383;48.632;10.156;2023-01-04T04:54:31;12.20;;;7.87;;
4738;SDS011;2383;48.632;10.156;2023-01-04T04:58:33;17.57;;;12.23;;
4738;SDS011;2383;48.632;10.156;2023-01-04T05:02:35;11.73;;;8.10;;
4738;SDS011;2383;48.632;10.156;2023-01-04T05:06:37;10.83;;;7.67;;
4738;SDS011;2383;48.632;10.156;2023-01-04T05:10:38;9.73;;;7.40;;
4738;SDS011;2383;48.632;10.156;2023-01-04T05:14:40;11.33;;;7.33;;
4738;SDS011;2383;48.632;10.156;2023-01-04T05:18:42;11.33;;;7.53;;
4738;SDS011;2383;48.632;10.156;2023-01-04T05:22:44;10.80;;;6.87;;
4738;SDS011;2383;48.632;10.156;2023-01-04T05:26:46;11.03;;;7.03;;
4738;SDS011;2383;48.632;10.156;2023-01-04T05:30:48;10.10;;;7.03;;
4738;SDS011;2383;48.632;10.156;2023-01-04T05:34:50;10.03;;;6.63;;
4738;SDS011;2383;48.632;10.156;2023-01-04T05:38:52;10.93;;;7.50;;
4738;SDS011;2383;48.632;10.156;2023-01-04T05:42:54;11.43;;;7.53;;
4738;SDS011;2383;48.632;10.156;2023-01-04T05:46:56;11.03;;;6.67;;
4738;SDS011;2383;48.632;10.156;2023-01-04T05:50:58;8.30;;;6.00;;
4738;SDS011;2383;48.632;10.156;2023-01-04T05:54:59;8.53;;;5.53;;
4738;SDS011;2383;48.632;10.156;2023-01-04T05:59:01;8.00;;;6.00;;
4738;SDS011;2383;48.632;10.156;2023-01-04T06:03:03;9.40;;;5.80;;
4738;SDS011;2383;48.632;10.156;2023-01-04T06:07:05;8.90;;;5.90;;
4738;SDS011;2383;48.632;10.156;2023-01-04T06:11:07;8.53;;;5.93;;
4738;SDS011;2383;48.632;10.156;2023-01-04T06:15:09;11.53;;;7.60;;
4738;SDS011;2383;48.632;10.156;2023-01-04T06:19:11;7.73;;;5.40;;
4738;SDS011;2383;48.632;10.156;2023-01-04T06:23:13;10.10;;;7.20;;
4738;SDS011;2383;48.632;10.156;2023-01-04T06:27:15;9.87;;;6.47;;
4738;SDS011;2383;48.632;10.156;2023-01-04T06:31:17;8.37;;;5.60;;
4738;SDS011;2383;48.632;10.156;2023-01-04T06:35:19;8.27;;;6.07;;
4738;SDS011;2383;48.632;10.156;2023-01-04T06:39:21;8.93;;;6.07;;
4738;SDS011;2383;48.632;10.156;2023-01-04T06:43:22;9.73;;;6.77;;
4738;SDS011;2383;48.632;10.156;2023-01-04T06:47:25;10.10;;;6.63;;
4738;SDS011;2383;48.632;10.156;2023-01-04T06:51:26;9.53;;;6.30;;
4738;SDS011;2383;48.632;10.156;2023-01-04T06:55:29;9.97;;;6.40;;
4738;SDS011;2383;48.632;10.156;2023-01-04T06:59:31;9.60;;;6.37;;
4738;SDS011;2383;48.632;10.156;2023-01-04T07:03:33;10.20;;;6.90;;
4738;SDS011;2383;48.632;10.156;2023-01-04T07:07:35;10.30;;;7.20;;
4738;SDS011;2383;48.632;10.156;2023-01-04T07:11:37;10.27;;;6.70;;
4738;SDS011;2383;48.632;10.156;2023-01-04T07:15:39;9.53;;;6.27;;
4738;SDS011;2383;48.632;10.156;2023-01-04T07:19:41;11.97;;;7.97;;
4738;SDS011;2383;48.632;10.156;2023-01-04T07:23:43;12.70;;;7.43;;
4738;SDS011;2383;48.632;10.156;2023-01-04T07:27:49;10.47;;;7.03;;
4738;SDS011;2383;48.632;10.156;2023-01-04T07:31:55;11.47;;;6.93;;
4738;SDS011;2383;48.632;10.156;2023-01-04T07:36:00;11.67;;;7.20;;
4738;SDS011;2383;48.632;10.156;2023-01-04T07:40:03;9.40;;;6.20;;
4738;SDS011;2383;48.632;10.156;2023-01-04T07:44:06;14.93;;;8.03;;
4738;SDS011;2383;48.632;10.156;2023-01-04T07:48:09;13.10;;;8.53;;
4738;SDS011;2383;48.632;10.156;2023-01-04T07:52:11;12.43;;;7.87;;
4738;SDS011;2383;48.632;10.156;2023-01-04T07:56:13;11.43;;;7.73;;
4738;SDS011;2383;48.632;10.156;2023-01-04T08:00:19;14.90;;;8.13;;
4738;SDS011;2383;48.632;10.156;2023-01-04T08:04:21;12.37;;;8.50;;
4738;SDS011;2383;48.632;10.156;2023-01-04T08:08:30;12.43;;;7.70;;
4738;SDS011;2383;48.632;10.156;2023-01-04T08:12:31;14.50;;;8.40;;
4738;SDS011;2383;48.632;10.156;2023-01-04T08:16:34;13.73;;;8.47;;
4738;SDS011;2383;48.632;10.156;2023-01-04T08:20:38;11.77;;;8.97;;
4738;SDS011;2383;48.632;10.156;2023-01-04T08:24:40;12.57;;;8.80;;
4738;SDS011;2383;48.632;10.156;2023-01-04T08:28:42;11.87;;;8.23;;
4738;SDS011;2383;48.632;10.156;2023-01-04T08:32:44;12.40;;;9.10;;
4738;SDS011;2383;48.632;10.156;2023-01-04T08:36:47;19.83;;;14.83;;
4738;SDS011;2383;48.632;10.156;2023-01-04T08:40:50;12.63;;;9.77;;
4738;SDS011;2383;48.632;10.156;2023-01-04T08:45:02;39.17;;;22.70;;
4738;SDS011;2383;48.632;10.156;2023-01-04T08:49:04;14.33;;;10.03;;
4738;SDS011;2383;48.632;10.156;2023-01-04T08:53:06;10.67;;;7.00;;
4738;SDS011;2383;48.632;10.156;2023-01-04T08:57:07;10.77;;;6.80;;
4738;SDS011;2383;48.632;10.156;2023-01-04T09:01:09;10.07;;;7.10;;
4738;SDS011;2383;48.632;10.156;2023-01-04T09:05:12;12.07;;;7.90;;
4738;SDS011;2383;48.632;10.156;2023-01-04T09:09:23;8.03;;;6.77;;
4738;SDS011;2383;48.632;10.156;2023-01-04T09:13:25;6.70;;;5.57;;
4738;SDS011;2383;48.632;10.156;2023-01-04T09:17:27;9.13;;;6.27;;
4738;SDS011;2383;48.632;10.156;2023-01-04T09:21:29;7.60;;;5.77;;
4738;SDS011;2383;48.632;10.156;2023-01-04T09:25:31;7.40;;;5.67;;
4738;SDS011;2383;48.632;10.156;2023-01-04T09:29:32;7.17;;;5.67;;
4738;SDS011;2383;48.632;10.156;2023-01-04T09:33:34;7.23;;;5.40;;
4738;SDS011;2383;48.632;10.156;2023-01-04T09:37:56;7.93;;;6.10;;
4738;SDS011;2383;48.632;10.156;2023-01-04T09:41:59;6.63;;;5.43;;
4738;SDS011;2383;48.632;10.156;2023-01-04T09:46:06;7.83;;;5.30;;
4738;SDS011;2383;48.632;10.156;2023-01-04T09:59:36;8.73;;;5.50;;
4738;SDS011;2383;48.632;10.156;2023-01-04T10:03:38;7.40;;;5.30;;
4738;SDS011;2383;48.632;10.156;2023-01-04T10:07:46;7.50;;;5.80;;
4738;SDS011;2383;48.632;10.156;2023-01-04T10:16:09;8.10;;;5.60;;
4738;SDS011;2383;48.632;10.156;2023-01-04T10:20:48;6.83;;;4.97;;
4738;SDS011;2383;48.632;10.156;2023-01-04T10:25:28;6.83;;;4.97;;
4738;SDS011;2383;48.632;10.156;2023-01-04T10:38:31;11.10;;;6.60;;
4738;SDS011;2383;48.632;10.156;2023-01-04T10:42:52;14.40;;;7.30;;
4738;SDS011;2383;48.632;10.156;2023-01-04T10:56:01;6.60;;;4.77;;
4738;SDS011;2383;48.632;10.156;2023-01-04T11:00:28;10.90;;;5.03;;
4738;SDS011;2383;48.632;10.156;2023-01-04T11:04:35;7.80;;;5.07;;
4738;SDS011;2383;48.632;10.156;2023-01-04T11:08:48;8.30;;;4.50;;
4738;SDS011;2383;48.632;10.156;2023-01-04T11:12:55;6.57;;;4.90;;
4738;SDS011;2383;48.632;10.156;2023-01-04T11:16:57;7.50;;;4.73;;
4738;SDS011;2383;48.632;10.156;2023-01-04T11:21:05;6.60;;;4.20;;
4738;SDS011;2383;48.632;10.156;2023-01-04T11:25:14;7.27;;;4.83;;
4738;SDS011;2383;48.632;10.156;2023-01-04T11:29:41;4.37;;;3.63;;
4738;SDS011;2383;48.632;10.156;2023-01-04T11:33:56;5.37;;;4.30;;
4738;SDS011;2383;48.632;10.156;2023-01-04T11:38:10;5.23;;;3.70;;
4738;SDS011;2383;48.632;10.156;2023-01-04T11:42:18;5.07;;;3.90;;
4738;SDS011;2383;48.632;10.156;2023-01-04T11:46:22;5.37;;;3.73;;
4738;SDS011;2383;48.632;10.156;2023-01-04T11:50:38;5.60;;;3.63;;
4738;SDS011;2383;48.632;10.156;2023-01-04T11:54:42;6.07;;;3.60;;
4738;SDS011;2383;48.632;10.156;2023-01-04T11:58:45;4.23;;;3.80;;
4738;SDS011;2383;48.632;10.156;2023-01-04T12:03:14;6.23;;;3.83;;
4738;SDS011;2383;48.632;10.156;2023-01-04T12:11:34;6.93;;;4.17;;
4738;SDS011;2383;48.632;10.156;2023-01-04T12:20:19;7.30;;;3.80;;
4738;SDS011;2383;48.632;10.156;2023-01-04T12:24:24;5.80;;;4.00;;
4738;SDS011;2383;48.632;10.156;2023-01-04T12:28:30;3.83;;;2.80;;
4738;SDS011;2383;48.632;10.156;2023-01-04T12:32:38;4.20;;;3.10;;
4738;SDS011;2383;48.632;10.156;2023-01-04T12:48:52;4.13;;;3.13;;
4738;SDS011;2383;48.632;10.156;2023-01-04T12:53:06;4.27;;;3.13;;
4738;SDS011;2383;48.632;10.156;2023-01-04T13:01:38;6.77;;;3.90;;
4738;SDS011;2383;48.632;10.156;2023-01-04T13:05:41;4.97;;;3.37;;
4738;SDS011;2383;48.632;10.156;2023-01-04T13:10:01;4.97;;;3.47;;
4738;SDS011;2383;48.632;10.156;2023-01-04T13:14:30;7.30;;;4.33;;
4738;SDS011;2383;48.632;10.156;2023-01-04T13:18:40;6.67;;;4.57;;
4738;SDS011;2383;48.632;10.156;2023-01-04T13:22:54;4.70;;;3.67;;
4738;SDS011;2383;48.632;10.156;2023-01-04T13:27:05;6.63;;;3.60;;
4738;SDS011;2383;48.632;10.156;2023-01-04T13:31:09;9.07;;;3.20;;
4738;SDS011;2383;48.632;10.156;2023-01-04T13:35:11;3.27;;;2.47;;
4738;SDS011;2383;48.632;10.156;2023-01-04T13:39:15;4.03;;;2.93;;
4738;SDS011;2383;48.632;10.156;2023-01-04T13:43:23;5.17;;;2.50;;
4738;SDS011;2383;48.632;10.156;2023-01-04T13:47:35;3.30;;;2.50;;
4738;SDS011;2383;48.632;10.156;2023-01-04T13:51:39;5.77;;;3.07;;
4738;SDS011;2383;48.632;10.156;2023-01-04T13:55:41;6.03;;;3.30;;
4738;SDS011;2383;48.632;10.156;2023-01-04T13:59:43;4.70;;;2.77;;
4738;SDS011;2383;48.632;10.156;2023-01-04T14:03:46;3.73;;;2.70;;
4738;SDS011;2383;48.632;10.156;2023-01-04T14:07:52;4.07;;;2.60;;
4738;SDS011;2383;48.632;10.156;2023-01-04T14:11:54;6.50;;;2.90;;
4738;SDS011;2383;48.632;10.156;2023-01-04T14:16:09;4.87;;;2.90;;
4738;SDS011;2383;48.632;10.156;2023-01-04T14:20:30;5.23;;;2.73;;
4738;SDS011;2383;48.632;10.156;2023-01-04T14:24:35;4.63;;;3.00;;
4738;SDS011;2383;48.632;10.156;2023-01-04T14:28:58;5.53;;;2.57;;
4738;SDS011;2383;48.632;10.156;2023-01-04T14:33:20;3.30;;;2.70;;
4738;SDS011;2383;48.632;10.156;2023-01-04T14:37:23;3.60;;;2.83;;
4738;SDS011;2383;48.632;10.156;2023-01-04T14:45:30;4.93;;;2.93;;
4738;SDS011;2383;48.632;10.156;2023-01-04T14:49:32;3.77;;;2.30;;
4738;SDS011;2383;48.632;10.156;2023-01-04T14:53:34;5.37;;;2.73;;
4738;SDS011;2383;48.632;10.156;2023-01-04T14:57:36;3.97;;;2.80;;
4738;SDS011;2383;48.632;10.156;2023-01-04T15:01:43;4.13;;;2.50;;
4738;SDS011;2383;48.632;10.156;2023-01-04T15:05:45;4.60;;;3.17;;
4738;SDS011;2383;48.632;10.156;2023-01-04T15:09:47;5.07;;;3.07;;
4738;SDS011;2383;48.632;10.156;2023-01-04T15:13:49;5.03;;;3.43;;
4738;SDS011;2383;48.632;10.156;2023-01-04T15:17:51;6.63;;;3.63;;
4738;SDS011;2383;48.632;10.156;2023-01-04T15:21:53;5.70;;;3.60;;
4738;SDS011;2383;48.632;10.156;2023-01-04T15:25:54;6.70;;;4.07;;
4738;SDS011;2383;48.632;10.156;2023-01-04T15:29:56;6.00;;;4.30;;
4738;SDS011;2383;48.632;10.156;2023-01-04T15:33:58;8.30;;;4.47;;
4738;SDS011;2383;48.632;10.156;2023-01-04T15:38:00;6.73;;;3.60;;
4738;SDS011;2383;48.632;10.156;2023-01-04T15:42:08;9.23;;;4.00;;
4738;SDS011;2383;48.632;10.156;2023-01-04T15:46:30;5.83;;;4.07;;
4738;SDS011;2383;48.632;10.156;2023-01-04T15:50:33;7.50;;;4.43;;
4738;SDS011;2383;48.632;10.156;2023-01-04T15:54:36;8.27;;;4.43;;
4738;SDS011;2383;48.632;10.156;2023-01-04T15:58:38;7.20;;;4.53;;
4738;SDS011;2383;48.632;10.156;2023-01-04T16:02:40;5.40;;;3.90;;
4738;SDS011;2383;48.632;10.156;2023-01-04T16:06:43;6.67;;;3.77;;
4738;SDS011;2383;48.632;10.156;2023-01-04T16:10:45;5.60;;;3.63;;
4738;SDS011;2383;48.632;10.156;2023-01-04T16:14:46;5.73;;;4.13;;
4738;SDS011;2383;48.632;10.156;2023-01-04T16:18:49;5.47;;;3.67;;
4738;SDS011;2383;48.632;10.156;2023-01-04T16:22:53;4.63;;;3.80;;
4738;SDS011;2383;48.632;10.156;2023-01-04T16:26:55;4.80;;;3.33;;
4738;SDS011;2383;48.632;10.156;2023-01-04T16:30:57;5.80;;;3.67;;
4738;SDS011;2383;48.632;10.156;2023-01-04T16:34:58;4.90;;;3.77;;
4738;SDS011;2383;48.632;10.156;2023-01-04T16:39:00;7.90;;;4.33;;
4738;SDS011;2383;48.632;10.156;2023-01-04T16:43:02;5.43;;;3.80;;
4738;SDS011;2383;48.632;10.156;2023-01-04T16:47:04;6.13;;;4.20;;
4738;SDS011;2383;48.632;10.156;2023-01-04T16:51:07;6.03;;;3.73;;
4738;SDS011;2383;48.632;10.156;2023-01-04T16:55:08;5.67;;;3.70;;
4738;SDS011;2383;48.632;10.156;2023-01-04T16:59:11;5.90;;;4.17;;
4738;SDS011;2383;48.632;10.156;2023-01-04T17:03:15;7.63;;;4.30;;
4738;SDS011;2383;48.632;10.156;2023-01-04T17:07:17;4.97;;;3.63;;
4738;SDS011;2383;48.632;10.156;2023-01-04T17:11:20;5.13;;;3.50;;
4738;SDS011;2383;48.632;10.156;2023-01-04T17:15:43;5.83;;;3.43;;
4738;SDS011;2383;48.632;10.156;2023-01-04T17:19:45;7.93;;;3.80;;
4738;SDS011;2383;48.632;10.156;2023-01-04T17:23:48;3.80;;;2.90;;
4738;SDS011;2383;48.632;10.156;2023-01-04T17:27:51;4.30;;;3.27;;
4738;SDS011;2383;48.632;10.156;2023-01-04T17:31:53;4.20;;;3.43;;
4738;SDS011;2383;48.632;10.156;2023-01-04T17:35:55;4.60;;;3.20;;
4738;SDS011;2383;48.632;10.156;2023-01-04T17:39:57;4.40;;;3.27;;
4738;SDS011;2383;48.632;10.156;2023-01-04T17:44:00;4.47;;;3.07;;
4738;SDS011;2383;48.632;10.156;2023-01-04T17:48:04;4.80;;;3.00;;
4738;SDS011;2383;48.632;10.156;2023-01-04T17:52:07;3.77;;;2.57;;
4738;SDS011;2383;48.632;10.156;2023-01-04T17:56:12;3.17;;;2.20;;
4738;SDS011;2383;48.632;10.156;2023-01-04T18:00:15;5.13;;;2.13;;
4738;SDS011;2383;48.632;10.156;2023-01-04T18:04:17;5.23;;;2.77;;
4738;SDS011;2383;48.632;10.156;2023-01-04T18:08:20;3.60;;;1.60;;
4738;SDS011;2383;48.632;10.156;2023-01-04T18:12:22;2.97;;;2.30;;
4738;SDS011;2383;48.632;10.156;2023-01-04T18:16:24;3.57;;;2.23;;
4738;SDS011;2383;48.632;10.156;2023-01-04T18:20:28;2.77;;;1.60;;
4738;SDS011;2383;48.632;10.156;2023-01-04T18:24:31;2.00;;;1.80;;
4738;SDS011;2383;48.632;10.156;2023-01-04T18:28:38;2.40;;;1.83;;
4738;SDS011;2383;48.632;10.156;2023-01-04T18:32:40;2.40;;;2.13;;
4738;SDS011;2383;48.632;10.156;2023-01-04T18:36:42;2.17;;;1.77;;
4738;SDS011;2383;48.632;10.156;2023-01-04T18:40:43;2.93;;;2.13;;
4738;SDS011;2383;48.632;10.156;2023-01-04T18:44:45;2.80;;;2.30;;
4738;SDS011;2383;48.632;10.156;2023-01-04T18:48:54;3.20;;;2.20;;
4738;SDS011;2383;48.632;10.156;2023-01-04T18:52:57;3.43;;;2.03;;
4738;SDS011;2383;48.632;10.156;2023-01-04T18:56:59;3.07;;;2.27;;
4738;SDS011;2383;48.632;10.156;2023-01-04T19:01:06;3.33;;;2.07;;
4738;SDS011;2383;48.632;10.156;2023-01-04T19:05:09;3.80;;;1.90;;
4738;SDS011;2383;48.632;10.156;2023-01-04T19:09:12;2.30;;;1.80;;
4738;SDS011;2383;48.632;10.156;2023-01-04T19:13:14;3.23;;;1.80;;
4738;SDS011;2383;48.632;10.156;2023-01-04T19:17:16;15.93;;;13.87;;
4738;SDS011;2383;48.632;10.156;2023-01-04T19:21:21;2.33;;;2.10;;
4738;SDS011;2383;48.632;10.156;2023-01-04T19:25:23;2.63;;;2.30;;
4738;SDS011;2383;48.632;10.156;2023-01-04T19:29:29;5.07;;;4.53;;
4738;SDS011;2383;48.632;10.156;2023-01-04T19:33:32;2.93;;;2.20;;
4738;SDS011;2383;48.632;10.156;2023-01-04T19:37:35;4.10;;;2.60;;
4738;SDS011;2383;48.632;10.156;2023-01-04T19:41:37;4.30;;;3.27;;
4738;SDS011;2383;48.632;10.156;2023-01-04T19:45:38;3.53;;;3.10;;
4738;SDS011;2383;48.632;10.156;2023-01-04T19:49:41;2.53;;;2.30;;
4738;SDS011;2383;48.632;10.156;2023-01-04T19:53:43;3.37;;;1.97;;
4738;SDS011;2383;48.632;10.156;2023-01-04T19:57:45;2.10;;;1.90;;
4738;SDS011;2383;48.632;10.156;2023-01-04T20:01:47;2.97;;;2.57;;
4738;SDS011;2383;48.632;10.156;2023-01-04T20:05:49;2.27;;;2.07;;
4738;SDS011;2383;48.632;10.156;2023-01-04T20:09:51;3.63;;;2.17;;
4738;SDS011;2383;48.632;10.156;2023-01-04T20:13:54;2.70;;;2.50;;
4738;SDS011;2383;48.632;10.156;2023-01-04T20:17:56;3.30;;;1.70;;
4738;SDS011;2383;48.632;10.156;2023-01-04T20:21:57;2.77;;;2.30;;
4738;SDS011;2383;48.632;10.156;2023-01-04T20:26:03;2.00;;;1.80;;
4738;SDS011;2383;48.632;10.156;2023-01-04T20:30:11;2.70;;;2.07;;
4738;SDS011;2383;48.632;10.156;2023-01-04T20:34:13;2.40;;;2.10;;
4738;SDS011;2383;48.632;10.156;2023-01-04T20:38:15;3.63;;;1.70;;
4738;SDS011;2383;48.632;10.156;2023-01-04T20:42:17;2.43;;;1.93;;
4738;SDS011;2383;48.632;10.156;2023-01-04T20:46:38;2.60;;;1.60;;
4738;SDS011;2383;48.632;10.156;2023-01-04T20:50:45;1.30;;;1.20;;
4738;SDS011;2383;48.632;10.156;2023-01-04T20:54:47;1.90;;;1.30;;
4738;SDS011;2383;48.632;10.156;2023-01-04T20:58:50;1.17;;;1.07;;
4738;SDS011;2383;48.632;10.156;2023-01-04T21:02:52;1.10;;;1.00;;
4738;SDS011;2383;48.632;10.156;2023-01-04T21:06:54;1.63;;;1.10;;
4738;SDS011;2383;48.632;10.156;2023-01-04T21:10:56;1.43;;;1.00;;
4738;SDS011;2383;48.632;10.156;2023-01-04T21:14:59;1.40;;;1.30;;
4738;SDS011;2383;48.632;10.156;2023-01-04T21:19:00;1.67;;;1.37;;
4738;SDS011;2383;48.632;10.156;2023-01-04T21:23:02;1.23;;;1.13;;
4738;SDS011;2383;48.632;10.156;2023-01-04T21:27:04;1.10;;;1.00;;
4738;SDS011;2383;48.632;10.156;2023-01-04T21:31:09;3.10;;;1.00;;
4738;SDS011;2383;48.632;10.156;2023-01-04T21:35:19;1.77;;;0.97;;
4738;SDS011;2383;48.632;10.156;2023-01-04T21:39:21;1.10;;;0.80;;
4738;SDS011;2383;48.632;10.156;2023-01-04T21:43:23;0.80;;;0.80;;
4738;SDS011;2383;48.632;10.156;2023-01-04T21:47:25;3.47;;;1.00;;
4738;SDS011;2383;48.632;10.156;2023-01-04T21:51:29;0.73;;;0.73;;
4738;SDS011;2383;48.632;10.156;2023-01-04T21:55:31;0.83;;;0.83;;
4738;SDS011;2383;48.632;10.156;2023-01-04T21:59:35;0.70;;;0.70;;
4738;SDS011;2383;48.632;10.156;2023-01-04T22:03:37;6.97;;;0.70;;
4738;SDS011;2383;48.632;10.156;2023-01-04T22:07:39;0.93;;;0.63;;
4738;SDS011;2383;48.632;10.156;2023-01-04T22:11:41;0.50;;;0.50;;
4738;SDS011;2383;48.632;10.156;2023-01-04T22:15:43;0.50;;;0.50;;
4738;SDS011;2383;48.632;10.156;2023-01-04T22:19:45;0.40;;;0.40;;
4738;SDS011;2383;48.632;10.156;2023-01-04T22:23:47;0.83;;;0.60;;
4738;SDS011;2383;48.632;10.156;2023-01-04T22:27:49;0.70;;;0.50;;
4738;SDS011;2383;48.632;10.156;2023-01-04T22:31:51;0.40;;;0.40;;
4738;SDS011;2383;48.632;10.156;2023-01-04T22:35:53;0.77;;;0.60;;
4738;SDS011;2383;48.632;10.156;2023-01-04T22:39:55;0.77;;;0.73;;
4738;SDS011;2383;48.632;10.156;2023-01-04T22:43:58;0.57;;;0.57;;
4738;SDS011;2383;48.632;10.156;2023-01-04T22:48:06;1.23;;;0.60;;
4738;SDS011;2383;48.632;10.156;2023-01-04T22:52:08;0.60;;;0.60;;
4738;SDS011;2383;48.632;10.156;2023-01-04T22:56:10;0.60;;;0.60;;
4738;SDS011;2383;48.632;10.156;2023-01-04T23:00:21;0.60;;;0.60;;
4738;SDS011;2383;48.632;10.156;2023-01-04T23:04:23;0.60;;;0.60;;
4738;SDS011;2383;48.632;10.156;2023-01-04T23:08:25;0.90;;;0.60;;
4738;SDS011;2383;48.632;10.156;2023-01-04T23:12:28;1.13;;;0.70;;
4738;SDS011;2383;48.632;10.156;2023-01-04T23:16:30;1.03;;;0.60;;
4738;SDS011;2383;48.632;10.156;2023-01-04T23:20:33;0.70;;;0.70;;
4738;SDS011;2383;48.632;10.156;2023-01-04T23:24:35;0.80;;;0.80;;
4738;SDS011;2383;48.632;10.156;2023-01-04T23:28:38;0.77;;;0.70;;
4738;SDS011;2383;48.632;10.156;2023-01-04T23:32:40;0.60;;;0.60;;
4738;SDS011;2383;48.632;10.156;2023-01-04T23:36:43;0.97;;;0.40;;
4738;SDS011;2383;48.632;10.156;2023-01-04T23:40:47;0.90;;;0.50;;
4738;SDS011;2383;48.632;10.156;2023-01-04T23:44:49;1.20;;;0.77;;
4738;SDS011;2383;48.632;10.156;2023-01-04T23:48:51;1.27;;;0.70;;
4738;SDS011;2383;48.632;10.156;2023-01-04T23:52:53;0.50;;;0.50;;
4738;SDS011;2383;48.632;10.156;2023-01-04T23:56:54;1.23;;;0.53;;
